Time;durP1;ratioP1;P1;durP2;ratioP2;P2;SDS_P1;SDS_P2;PMS_P1;PMS_P2;Temp;Humidity;BMP_temperature;BMP_pressure;BME280_temperature;BME280_humidity;BME280_pressure;Samples;Min_cycle;Max_cycle;Signal;HPM_P1;HPM_P2
2021/06/03 00:01:32;;;;;;;1.40;0.80;;;24.00;42.00;;;;;;5063099;28;20387;-59
2021/06/03 00:03:58;;;;;;;1.02;0.90;;;24.10;42.00;;;;;;5069595;28;20040;-61
2021/06/03 00:06:24;;;;;;;1.38;0.88;;;24.00;42.00;;;;;;5063388;28;20032;-61
2021/06/03 00:08:50;;;;;;;1.55;0.90;;;24.10;42.00;;;;;;5057327;28;20035;-61
2021/06/03 00:11:15;;;;;;;1.45;0.80;;;24.00;41.90;;;;;;5061397;28;20487;-61
2021/06/03 00:13:44;;;;;;;1.83;1.10;;;24.10;42.00;;;;;;5076537;28;20039;-61
2021/06/03 00:16:12;;;;;;;1.58;0.90;;;24.10;41.90;;;;;;5075429;28;20033;-61
2021/06/03 00:18:40;;;;;;;1.02;0.80;;;24.00;41.90;;;;;;5060759;28;20036;-61
2021/06/03 00:21:06;;;;;;;1.88;1.00;;;24.00;42.40;;;;;;5050756;28;20096;-61
2021/06/03 00:23:32;;;;;;;1.20;0.90;;;24.00;41.90;;;;;;5061102;28;20029;-61
2021/06/03 00:25:58;;;;;;;2.33;1.08;;;24.00;41.90;;;;;;5068697;28;20030;-62
2021/06/03 00:28:26;;;;;;;2.22;1.00;;;24.00;41.90;;;;;;5067334;28;20333;-61
2021/06/03 00:30:52;;;;;;;1.92;0.88;;;24.00;41.90;;;;;;5062754;28;20078;-62
2021/06/03 00:33:18;;;;;;;1.85;1.00;;;24.00;41.90;;;;;;5053440;28;20036;-61
2021/06/03 00:35:44;;;;;;;1.48;1.00;;;24.00;41.90;;;;;;5064896;28;20102;-61
2021/06/03 00:38:10;;;;;;;2.13;1.02;;;24.00;41.90;;;;;;5066431;28;20024;-61
2021/06/03 00:40:37;;;;;;;2.58;1.00;;;24.00;41.90;;;;;;5052135;28;20465;-61
2021/06/03 00:43:03;;;;;;;2.28;1.00;;;24.00;41.90;;;;;;5066245;28;20036;-61
2021/06/03 00:45:33;;;;;;;1.20;0.90;;;24.00;41.90;;;;;;5068795;28;20040;-60
2021/06/03 00:48:00;;;;;;;1.23;0.80;;;24.00;41.90;;;;;;5067625;28;20017;-61
2021/06/03 00:50:30;;;;;;;0.88;0.80;;;24.00;41.90;;;;;;5054306;28;20044;-61
2021/06/03 00:52:56;;;;;;;1.48;0.85;;;24.00;42.00;;;;;;5063279;28;20039;-61
2021/06/03 00:55:22;;;;;;;1.73;0.88;;;24.00;41.90;;;;;;5052965;28;20056;-61
2021/06/03 00:57:48;;;;;;;1.27;0.93;;;23.90;41.80;;;;;;5069040;28;20070;-62
2021/06/03 01:00:15;;;;;;;1.20;0.82;;;23.90;41.90;;;;;;5058453;28;20086;-61
2021/06/03 01:02:41;;;;;;;1.10;0.80;;;23.90;41.90;;;;;;5057151;28;20028;-62
2021/06/03 01:05:30;;;;;;;1.88;0.90;;;23.90;41.90;;;;;;5061312;28;20078;-59
2021/06/03 01:08:02;;;;;;;1.23;0.80;;;23.90;41.90;;;;;;5067518;28;20425;-61
2021/06/03 01:10:34;;;;;;;1.50;0.80;;;23.90;41.90;;;;;;5064181;28;20063;-61
2021/06/03 01:13:07;;;;;;;0.93;0.80;;;23.90;41.90;;;;;;5059578;28;20043;-61
2021/06/03 01:15:33;;;;;;;2.03;1.00;;;23.90;41.90;;;;;;5058681;28;20028;-60
2021/06/03 01:18:04;;;;;;;1.33;0.90;;;23.90;41.90;;;;;;5058255;28;20405;-61
2021/06/03 01:20:33;;;;;;;1.38;0.80;;;23.90;41.90;;;;;;5049004;28;20035;-61
2021/06/03 01:23:17;;;;;;;1.83;1.10;;;23.90;41.90;;;;;;5050990;28;20043;-61
2021/06/03 01:25:45;;;;;;;1.60;0.80;;;23.90;41.90;;;;;;5048442;28;20044;-61
2021/06/03 01:28:12;;;;;;;1.00;0.80;;;23.90;41.90;;;;;;5062166;28;20702;-61
2021/06/03 01:30:47;;;;;;;1.02;0.85;;;23.90;42.00;;;;;;5062057;28;20140;-61
2021/06/03 01:33:26;;;;;;;1.40;0.90;;;23.90;41.90;;;;;;5055088;28;20433;-61
2021/06/03 01:35:54;;;;;;;1.50;0.82;;;23.90;42.50;;;;;;5048891;28;20035;-61
2021/06/03 01:38:30;;;;;;;1.77;1.10;;;23.90;41.90;;;;;;5067970;28;20063;-61
2021/06/03 01:40:57;;;;;;;1.55;0.80;;;23.80;41.90;;;;;;5063187;28;20028;-61
2021/06/03 01:43:26;;;;;;;1.20;0.80;;;23.90;42.00;;;;;;5060959;28;20414;-61
2021/06/03 01:45:52;;;;;;;1.52;0.93;;;23.80;41.90;;;;;;5064569;28;20764;-61
2021/06/03 01:48:20;;;;;;;1.30;0.90;;;23.80;41.90;;;;;;5048365;28;20017;-61
2021/06/03 01:50:48;;;;;;;1.27;0.70;;;23.80;41.90;;;;;;5048184;28;20088;-61
2021/06/03 01:53:14;;;;;;;1.35;0.80;;;23.80;41.90;;;;;;5049493;28;20090;-61
2021/06/03 01:55:40;;;;;;;1.73;0.90;;;23.80;41.90;;;;;;5053414;28;20539;-61
2021/06/03 01:58:06;;;;;;;1.45;0.93;;;23.80;42.00;;;;;;5058225;28;20112;-61
2021/06/03 02:00:33;;;;;;;2.10;1.00;;;23.80;42.00;;;;;;5061342;28;20036;-61
2021/06/03 02:02:59;;;;;;;0.95;0.80;;;23.80;42.00;;;;;;5067561;28;20051;-61
2021/06/03 02:05:25;;;;;;;1.65;0.80;;;23.80;42.00;;;;;;5064482;28;20060;-61
2021/06/03 02:07:51;;;;;;;1.30;0.85;;;23.80;42.00;;;;;;5062020;28;20048;-61
2021/06/03 02:10:18;;;;;;;1.67;0.93;;;23.80;42.00;;;;;;5059326;28;20060;-61
2021/06/03 02:13:06;;;;;;;1.42;0.93;;;23.80;42.00;;;;;;5047385;28;20375;-61
2021/06/03 02:15:39;;;;;;;1.63;0.90;;;23.80;42.00;;;;;;5049507;28;20040;-61
2021/06/03 02:18:08;;;;;;;1.98;1.10;;;23.70;42.00;;;;;;5066072;28;20086;-61
2021/06/03 02:20:37;;;;;;;1.17;0.80;;;23.80;42.00;;;;;;5056502;28;20112;-61
2021/06/03 02:23:03;;;;;;;0.93;0.70;;;23.80;42.00;;;;;;5047712;28;20026;-61
2021/06/03 02:25:29;;;;;;;2.50;0.90;;;23.70;42.00;;;;;;5063034;28;20513;-61
2021/06/03 02:27:56;;;;;;;1.63;0.90;;;23.70;42.00;;;;;;5047582;28;20051;-61
2021/06/03 02:30:23;;;;;;;1.80;0.88;;;23.70;42.00;;;;;;5047306;28;20056;-62
2021/06/03 02:32:53;;;;;;;1.63;0.90;;;23.70;42.00;;;;;;5058061;28;20711;-61
2021/06/03 02:35:20;;;;;;;1.42;0.90;;;23.70;42.00;;;;;;5047509;28;20375;-61
2021/06/03 02:37:46;;;;;;;1.80;0.90;;;23.70;42.00;;;;;;5047360;28;20040;-61
2021/06/03 02:40:16;;;;;;;1.23;0.93;;;23.70;42.00;;;;;;5047887;28;21795;-61
2021/06/03 02:42:43;;;;;;;1.25;0.80;;;23.70;42.00;;;;;;5046417;28;20021;-61
2021/06/03 02:45:12;;;;;;;1.38;0.82;;;23.70;42.10;;;;;;5047133;28;20107;-61
2021/06/03 02:47:38;;;;;;;1.43;1.00;;;23.70;42.00;;;;;;5048794;28;20112;-61
2021/06/03 02:50:07;;;;;;;1.42;0.90;;;23.70;42.00;;;;;;5056047;28;20028;-61
2021/06/03 02:52:34;;;;;;;1.38;0.90;;;23.70;42.10;;;;;;5062759;28;20013;-61
2021/06/03 02:54:59;;;;;;;1.05;0.80;;;23.70;42.10;;;;;;5067753;28;20048;-61
2021/06/03 02:57:25;;;;;;;1.02;0.88;;;23.70;42.10;;;;;;5065838;28;20531;-61
2021/06/03 02:59:51;;;;;;;0.88;0.70;;;23.60;42.00;;;;;;5066837;28;20033;-61
2021/06/03 03:02:16;;;;;;;1.02;0.80;;;23.60;42.00;;;;;;5052023;28;20110;-61
2021/06/03 03:04:42;;;;;;;1.73;0.90;;;23.70;42.10;;;;;;5060654;28;20108;-62
2021/06/03 03:07:07;;;;;;;1.40;1.00;;;23.60;42.10;;;;;;5053586;28;20522;-62
2021/06/03 03:09:33;;;;;;;1.50;0.90;;;23.70;42.10;;;;;;5066186;28;20598;-61
2021/06/03 03:11:59;;;;;;;1.05;0.80;;;23.60;42.10;;;;;;5052143;28;20040;-61
2021/06/03 03:14:24;;;;;;;1.10;0.80;;;23.60;42.10;;;;;;5047237;28;20017;-61
2021/06/03 03:16:51;;;;;;;1.77;0.93;;;23.70;42.10;;;;;;5057381;28;20270;-61
2021/06/03 03:19:16;;;;;;;1.65;0.93;;;23.60;42.10;;;;;;5056203;28;20108;-61
2021/06/03 03:21:42;;;;;;;1.42;0.90;;;23.60;42.10;;;;;;5062250;28;20071;-61
2021/06/03 03:24:08;;;;;;;1.20;0.90;;;23.60;42.10;;;;;;5063376;28;20033;-61
2021/06/03 03:26:35;;;;;;;1.00;0.80;;;23.60;42.10;;;;;;5045317;28;20479;-61
2021/06/03 03:29:00;;;;;;;0.88;0.80;;;23.60;42.10;;;;;;5046565;28;20025;-61
2021/06/03 03:31:26;;;;;;;1.35;0.80;;;23.60;42.10;;;;;;5047122;28;20051;-61
2021/06/03 03:33:52;;;;;;;1.77;1.00;;;23.60;42.20;;;;;;5050037;28;20446;-60
2021/06/03 03:36:17;;;;;;;1.45;0.80;;;23.60;42.20;;;;;;5063931;28;20042;-61
2021/06/03 03:38:43;;;;;;;1.13;0.80;;;23.60;42.10;;;;;;5054127;28;20025;-61
2021/06/03 03:41:08;;;;;;;1.48;0.90;;;23.60;42.10;;;;;;5047139;28;20025;-60
2021/06/03 03:43:34;;;;;;;0.95;0.80;;;23.60;42.20;;;;;;5056263;28;20021;-61
2021/06/03 03:46:00;;;;;;;1.60;0.90;;;23.60;42.20;;;;;;5059304;28;20116;-61
2021/06/03 03:48:25;;;;;;;1.27;0.80;;;23.60;42.20;;;;;;5045544;28;20032;-60
2021/06/03 03:50:51;;;;;;;1.30;0.80;;;23.60;42.20;;;;;;5046017;28;20048;-61
2021/06/03 03:53:17;;;;;;;1.00;0.88;;;23.50;42.10;;;;;;5061949;28;20024;-60
2021/06/03 03:55:42;;;;;;;1.30;0.90;;;23.60;42.20;;;;;;5060893;28;21003;-60
2021/06/03 03:58:08;;;;;;;1.40;0.80;;;23.50;42.10;;;;;;5056597;28;20474;-61
2021/06/03 04:00:34;;;;;;;1.40;0.90;;;23.50;42.10;;;;;;5047924;28;20087;-61
2021/06/03 04:03:02;;;;;;;1.20;0.90;;;23.50;42.10;;;;;;5063230;28;20478;-60
2021/06/03 04:05:28;;;;;;;0.73;0.73;;;23.50;42.10;;;;;;5067682;28;20215;-60
2021/06/03 04:07:54;;;;;;;1.30;0.80;;;23.50;42.20;;;;;;5057283;28;20033;-61
2021/06/03 04:10:21;;;;;;;1.65;1.00;;;23.50;42.20;;;;;;5048033;28;20039;-61
2021/06/03 04:12:48;;;;;;;1.35;0.90;;;23.50;42.20;;;;;;5064316;28;20062;-60
2021/06/03 04:15:15;;;;;;;1.10;0.80;;;23.50;42.20;;;;;;5050787;28;20036;-62
2021/06/03 04:17:40;;;;;;;1.23;0.90;;;23.50;42.20;;;;;;5049312;28;20036;-59
2021/06/03 04:20:13;;;;;;;1.10;0.80;;;23.50;42.20;;;;;;5068689;28;20340;-61
2021/06/03 04:22:39;;;;;;;0.95;0.80;;;23.50;42.20;;;;;;5059490;28;20063;-61
2021/06/03 04:25:06;;;;;;;2.70;0.90;;;23.50;42.20;;;;;;5073384;28;20066;-61
2021/06/03 04:27:32;;;;;;;1.58;1.05;;;23.50;42.20;;;;;;5062408;28;20471;-61
2021/06/03 04:29:57;;;;;;;1.35;0.85;;;23.40;42.20;;;;;;5048125;28;20056;-60
2021/06/03 04:32:23;;;;;;;1.35;0.95;;;23.40;42.20;;;;;;5048065;28;20060;-61
2021/06/03 04:34:48;;;;;;;1.05;0.90;;;23.40;42.20;;;;;;5048669;28;20094;-61
2021/06/03 04:37:14;;;;;;;0.93;0.80;;;23.40;42.20;;;;;;5053125;28;20048;-61
2021/06/03 04:39:40;;;;;;;1.45;1.00;;;23.40;42.20;;;;;;5066007;28;20253;-60
2021/06/03 04:42:06;;;;;;;1.25;0.77;;;23.50;42.20;;;;;;5058125;28;20025;-61
2021/06/03 04:44:32;;;;;;;0.98;0.80;;;23.40;42.20;;;;;;5054757;28;20456;-61
2021/06/03 04:46:58;;;;;;;0.88;0.77;;;23.40;42.20;;;;;;5048528;28;20025;-61
2021/06/03 04:49:23;;;;;;;1.35;0.90;;;23.40;42.20;;;;;;5053245;28;20028;-61
2021/06/03 04:51:49;;;;;;;1.55;0.90;;;23.40;42.20;;;;;;5067523;28;20526;-61
2021/06/03 04:54:15;;;;;;;1.35;1.00;;;23.40;42.20;;;;;;5064627;28;20402;-61
2021/06/03 04:56:40;;;;;;;1.80;0.90;;;23.40;42.20;;;;;;5066232;28;20549;-61
2021/06/03 04:59:06;;;;;;;1.30;0.80;;;23.40;42.20;;;;;;5053623;28;20033;-60
2021/06/03 05:01:32;;;;;;;1.95;0.90;;;23.40;42.20;;;;;;5063323;28;20036;-61
2021/06/03 05:03:57;;;;;;;1.42;0.90;;;23.40;42.20;;;;;;5063617;28;20035;-61
2021/06/03 05:06:23;;;;;;;1.33;0.90;;;23.40;42.20;;;;;;5060141;28;20172;-61
2021/06/03 05:08:49;;;;;;;1.50;0.88;;;23.40;42.20;;;;;;5060519;28;20374;-60
2021/06/03 05:11:14;;;;;;;1.30;0.70;;;23.40;42.20;;;;;;5066698;28;20027;-61
2021/06/03 05:13:40;;;;;;;1.02;0.80;;;23.40;42.20;;;;;;5066224;28;20078;-61
2021/06/03 05:16:06;;;;;;;0.88;0.80;;;23.40;42.20;;;;;;5049861;28;20175;-60
2021/06/03 05:18:32;;;;;;;1.00;0.80;;;23.40;42.30;;;;;;5057201;28;20416;-61
2021/06/03 05:20:58;;;;;;;0.85;0.70;;;23.40;42.30;;;;;;5066076;28;20135;-60
2021/06/03 05:23:24;;;;;;;1.30;0.85;;;23.40;42.30;;;;;;5063701;28;20025;-60
2021/06/03 05:25:49;;;;;;;1.00;0.70;;;23.40;42.30;;;;;;5052706;28;20709;-59
2021/06/03 05:28:15;;;;;;;0.70;0.70;;;23.40;42.30;;;;;;5075979;28;20031;-61
2021/06/03 05:30:42;;;;;;;1.13;0.80;;;23.30;42.20;;;;;;5073757;28;20033;-61
2021/06/03 05:33:07;;;;;;;1.00;0.80;;;23.30;42.30;;;;;;5068236;28;20079;-61
2021/06/03 05:35:33;;;;;;;0.80;0.80;;;23.30;42.30;;;;;;5066028;28;20048;-61
2021/06/03 05:38:00;;;;;;;1.08;0.77;;;23.30;42.30;;;;;;5064928;28;20036;-60
2021/06/03 05:40:27;;;;;;;1.23;0.90;;;23.30;42.30;;;;;;5065792;28;20096;-61
2021/06/03 05:42:55;;;;;;;1.23;0.90;;;23.30;42.30;;;;;;5051521;28;20140;-61
2021/06/03 05:45:21;;;;;;;1.15;1.00;;;23.30;42.30;;;;;;5047954;28;20030;-60
2021/06/03 05:47:48;;;;;;;1.13;0.90;;;23.30;42.30;;;;;;5061307;28;20758;-61
2021/06/03 05:50:16;;;;;;;1.10;0.80;;;23.30;42.30;;;;;;5067697;28;20036;-61
2021/06/03 05:52:43;;;;;;;1.10;0.80;;;23.30;42.30;;;;;;5056145;28;20111;-61
2021/06/03 05:55:11;;;;;;;0.90;0.73;;;23.30;42.30;;;;;;5062481;28;20028;-60
2021/06/03 05:57:37;;;;;;;0.90;0.80;;;23.30;42.30;;;;;;5054084;28;20052;-61
2021/06/03 06:00:18;;;;;;;0.73;0.70;;;23.30;42.30;;;;;;5067409;28;20708;-60
2021/06/03 06:03:13;;;;;;;1.00;0.80;;;23.30;42.30;;;;;;5049017;28;20463;-61
2021/06/03 06:08:15;;;;;;;1.02;0.80;;;23.30;42.40;;;;;;5059148;28;20051;-60
2021/06/03 06:10:43;;;;;;;0.93;0.70;;;23.30;42.40;;;;;;5056080;28;20758;-60
2021/06/03 06:13:09;;;;;;;1.10;0.80;;;23.20;42.30;;;;;;5067235;28;20173;-60
2021/06/03 06:15:37;;;;;;;0.90;0.70;;;23.30;42.40;;;;;;5052399;28;20025;-60
2021/06/03 06:18:04;;;;;;;0.80;0.70;;;23.30;42.40;;;;;;5049601;28;20112;-60
2021/06/03 06:20:30;;;;;;;1.15;0.82;;;23.30;42.40;;;;;;5056209;28;20087;-60
2021/06/03 06:22:57;;;;;;;1.30;1.00;;;23.30;42.40;;;;;;5071138;28;20028;-60
2021/06/03 06:25:23;;;;;;;1.15;0.80;;;23.30;42.40;;;;;;5062892;28;20037;-61
2021/06/03 06:27:49;;;;;;;0.77;0.77;;;23.30;42.40;;;;;;5065131;28;20028;-61
2021/06/03 06:30:16;;;;;;;0.70;0.70;;;23.30;42.40;;;;;;5060175;28;20108;-61
2021/06/03 06:32:42;;;;;;;1.35;0.90;;;23.30;42.40;;;;;;5047482;28;20017;-61
2021/06/03 06:35:09;;;;;;;1.17;0.80;;;23.30;42.40;;;;;;5048968;28;20083;-61
2021/06/03 06:37:35;;;;;;;0.90;0.80;;;23.30;42.40;;;;;;5057543;28;20042;-60
2021/06/03 06:40:02;;;;;;;0.95;0.75;;;23.20;42.40;;;;;;5052859;28;20040;-61
2021/06/03 06:42:30;;;;;;;1.10;0.80;;;23.20;42.90;;;;;;5050205;28;20032;-60
2021/06/03 06:44:56;;;;;;;0.90;0.80;;;23.20;42.40;;;;;;5048128;28;20918;-62
2021/06/03 06:47:21;;;;;;;1.08;0.70;;;23.20;42.40;;;;;;5057332;28;20072;-61
2021/06/03 06:49:48;;;;;;;0.88;0.70;;;23.30;42.40;;;;;;5051565;28;20100;-60
2021/06/03 06:52:15;;;;;;;1.13;0.88;;;23.20;42.40;;;;;;5064728;28;20051;-58
2021/06/03 06:54:41;;;;;;;0.80;0.80;;;23.20;42.40;;;;;;5066783;28;20024;-60
2021/06/03 06:57:06;;;;;;;0.88;0.70;;;23.20;42.40;;;;;;5063056;28;20029;-61
2021/06/03 06:59:32;;;;;;;1.70;0.90;;;23.20;42.40;;;;;;5065340;28;20093;-61
2021/06/03 07:01:58;;;;;;;0.65;0.65;;;23.20;42.40;;;;;;5062046;28;20072;-61
2021/06/03 07:04:24;;;;;;;1.23;0.90;;;23.20;42.50;;;;;;5055487;28;20025;-61
2021/06/03 07:06:49;;;;;;;1.17;0.88;;;23.20;42.50;;;;;;5049024;28;20041;-60
2021/06/03 07:09:15;;;;;;;1.05;0.80;;;23.20;42.40;;;;;;5057337;28;20107;-61
2021/06/03 07:11:40;;;;;;;1.77;0.88;;;23.20;42.50;;;;;;5055597;28;20029;-60
2021/06/03 07:14:06;;;;;;;1.30;0.90;;;23.20;42.50;;;;;;5067132;28;20093;-61
2021/06/03 07:16:32;;;;;;;0.95;0.80;;;23.20;42.50;;;;;;5057230;28;20024;-61
2021/06/03 07:18:57;;;;;;;1.15;0.88;;;23.20;42.50;;;;;;5059723;28;20032;-61
2021/06/03 07:21:23;;;;;;;1.17;0.88;;;23.20;42.50;;;;;;5050008;28;20443;-61
2021/06/03 07:23:48;;;;;;;1.27;0.90;;;23.20;42.50;;;;;;5052586;28;20086;-61
2021/06/03 07:26:14;;;;;;;1.17;0.90;;;23.20;42.50;;;;;;5058357;28;20064;-61
2021/06/03 07:28:41;;;;;;;1.30;0.90;;;23.20;42.50;;;;;;5050630;28;20044;-61
2021/06/03 07:31:08;;;;;;;1.45;0.98;;;23.20;42.50;;;;;;5060073;28;20519;-60
2021/06/03 07:33:34;;;;;;;1.48;0.93;;;23.20;42.50;;;;;;5060485;28;20506;-61
2021/06/03 07:36:00;;;;;;;1.25;0.90;;;23.20;42.50;;;;;;5057647;28;20110;-60
2021/06/03 07:38:26;;;;;;;1.50;1.00;;;23.20;42.50;;;;;;5051229;28;20081;-61
2021/06/03 07:40:51;;;;;;;1.23;1.00;;;23.20;42.60;;;;;;5052558;28;20088;-60
2021/06/03 07:43:18;;;;;;;1.85;1.10;;;23.20;42.60;;;;;;5056896;28;20191;-61
2021/06/03 07:45:44;;;;;;;1.58;0.93;;;23.20;42.60;;;;;;5063991;28;20029;-62
2021/06/03 07:48:10;;;;;;;2.08;1.05;;;23.20;42.60;;;;;;5051763;28;20124;-61
2021/06/03 07:50:36;;;;;;;1.58;1.00;;;23.20;42.60;;;;;;5065592;28;20041;-60
2021/06/03 07:53:04;;;;;;;1.58;1.10;;;23.20;42.60;;;;;;5062993;28;20051;-60
2021/06/03 07:55:31;;;;;;;1.70;1.00;;;23.20;42.60;;;;;;5068787;28;20036;-60
2021/06/03 07:58:00;;;;;;;2.20;1.10;;;23.20;42.60;;;;;;5060384;28;20140;-60
2021/06/03 08:00:28;;;;;;;1.80;1.00;;;23.20;42.60;;;;;;5051259;28;20048;-60
2021/06/03 08:02:54;;;;;;;1.80;1.10;;;23.20;42.60;;;;;;5069041;28;20709;-60
2021/06/03 08:05:21;;;;;;;1.52;1.05;;;23.20;42.60;;;;;;5062059;28;20036;-60
2021/06/03 08:07:48;;;;;;;1.67;1.15;;;23.20;42.60;;;;;;5067130;28;20029;-60
2021/06/03 08:10:17;;;;;;;1.55;1.05;;;23.20;42.60;;;;;;5066796;28;20139;-60
2021/06/03 08:12:42;;;;;;;1.95;1.00;;;23.20;42.60;;;;;;5058149;28;20028;-60
2021/06/03 08:15:11;;;;;;;1.40;1.00;;;23.20;42.70;;;;;;5064678;28;20800;-59
2021/06/03 08:17:37;;;;;;;1.10;1.00;;;23.20;42.60;;;;;;5058908;28;20052;-60
2021/06/03 08:20:08;;;;;;;1.20;1.00;;;23.20;42.60;;;;;;5055638;28;20418;-61
2021/06/03 08:22:34;;;;;;;1.23;1.00;;;23.20;42.60;;;;;;5056298;28;20056;-61
2021/06/03 08:24:59;;;;;;;1.58;1.10;;;23.20;42.70;;;;;;5061800;28;20411;-61
2021/06/03 08:27:25;;;;;;;1.38;1.13;;;23.20;42.60;;;;;;5058359;28;20029;-62
2021/06/03 08:29:51;;;;;;;2.05;1.10;;;23.20;42.60;;;;;;5064250;28;20426;-59
2021/06/03 08:32:16;;;;;;;1.40;1.00;;;23.20;42.60;;;;;;5060873;28;20500;-59
2021/06/03 08:34:42;;;;;;;1.63;1.10;;;23.20;42.60;;;;;;5066164;28;20028;-60
2021/06/03 08:37:08;;;;;;;1.50;1.20;;;23.20;42.70;;;;;;5050638;28;20087;-60
2021/06/03 08:39:33;;;;;;;1.23;1.00;;;23.20;42.60;;;;;;5059298;28;20033;-60
2021/06/03 08:41:59;;;;;;;1.42;1.00;;;23.30;42.70;;;;;;5058796;28;20059;-60
2021/06/03 08:44:30;;;;;;;1.63;1.00;;;23.30;42.70;;;;;;5065035;28;20039;-60
2021/06/03 08:46:57;;;;;;;1.25;1.10;;;23.30;42.70;;;;;;5061694;28;20042;-60
2021/06/03 08:49:23;;;;;;;1.45;1.00;;;23.30;42.70;;;;;;5065603;28;20780;-60
2021/06/03 08:51:53;;;;;;;1.35;1.00;;;23.30;42.60;;;;;;5056309;28;20057;-62
2021/06/03 08:54:19;;;;;;;1.70;1.10;;;23.30;42.60;;;;;;5060190;28;20179;-61
2021/06/03 08:56:44;;;;;;;1.48;1.10;;;23.30;42.60;;;;;;5053026;28;20120;-61
2021/06/03 08:59:10;;;;;;;2.05;1.10;;;23.30;42.60;;;;;;5046699;28;20040;-61
2021/06/03 09:01:36;;;;;;;1.63;1.00;;;23.30;42.60;;;;;;5059581;28;20045;-61
2021/06/03 09:04:01;;;;;;;2.35;1.10;;;23.30;42.70;;;;;;5049095;28;20035;-61
2021/06/03 09:06:27;;;;;;;1.50;1.02;;;23.30;42.70;;;;;;5048178;28;20043;-60
2021/06/03 09:08:57;;;;;;;1.58;1.10;;;23.30;42.70;;;;;;5054956;28;20036;-60
2021/06/03 09:11:23;;;;;;;;;;;23.30;42.70;;;;;;5057061;28;20029;-60
2021/06/03 09:13:52;;;;;;;2.13;1.33;;;23.30;42.80;;;;;;5057254;28;19986;-60
2021/06/03 09:16:29;;;;;;;1.50;1.20;;;23.30;42.80;;;;;;5052803;28;20025;-61
2021/06/03 09:19:00;;;;;;;1.38;1.02;;;23.30;42.80;;;;;;5054379;28;20033;-60
2021/06/03 09:21:28;;;;;;;1.67;1.30;;;23.30;42.90;;;;;;5052492;28;20049;-61
2021/06/03 09:24:00;;;;;;;1.67;1.10;;;23.30;42.80;;;;;;5061544;28;20020;-61
2021/06/03 09:26:29;;;;;;;1.58;1.20;;;23.30;42.90;;;;;;5061965;28;20880;-59
2021/06/03 09:28:57;;;;;;;1.77;1.30;;;23.30;43.00;;;;;;5049399;28;20488;-59
2021/06/03 09:31:26;;;;;;;1.60;1.30;;;23.40;43.00;;;;;;5049447;28;20036;-60
2021/06/03 09:33:59;;;;;;;1.88;1.40;;;23.30;43.00;;;;;;5062316;28;20033;-60
2021/06/03 09:36:27;;;;;;;1.95;1.30;;;23.40;43.10;;;;;;5049905;28;20148;-61
2021/06/03 09:38:54;;;;;;;2.08;1.40;;;23.40;43.00;;;;;;5064334;28;20570;-60
2021/06/03 09:41:21;;;;;;;2.00;1.63;;;23.40;43.10;;;;;;5054119;28;20090;-61
2021/06/03 09:43:47;;;;;;;1.70;1.27;;;23.40;43.10;;;;;;5053056;28;20029;-61
2021/06/03 09:46:17;;;;;;;1.75;1.20;;;23.40;43.10;;;;;;5056258;28;20047;-62
2021/06/03 09:48:47;;;;;;;1.42;1.20;;;23.40;43.10;;;;;;5057360;28;20070;-61
2021/06/03 09:51:39;;;;;;;1.67;1.20;;;23.40;43.10;;;;;;5048061;28;20379;-62
2021/06/03 09:54:10;;;;;;;1.77;1.33;;;23.40;43.20;;;;;;5055011;28;20043;-62
2021/06/03 09:56:37;;;;;;;1.42;1.10;;;23.40;43.20;;;;;;5059976;28;20029;-62
2021/06/03 09:59:18;;;;;;;1.70;1.23;;;23.40;43.10;;;;;;5060730;28;20043;-61
2021/06/03 10:02:02;;;;;;;2.00;1.30;;;23.40;43.20;;;;;;5064836;28;20060;-61
2021/06/03 10:04:38;;;;;;;2.15;1.40;;;23.40;43.20;;;;;;5054381;28;20023;-61
2021/06/03 10:07:24;;;;;;;1.80;1.25;;;23.40;43.20;;;;;;5045281;28;20647;-61
2021/06/03 10:09:50;;;;;;;1.70;1.30;;;23.40;43.20;;;;;;5050032;28;20051;-61
2021/06/03 10:12:27;;;;;;;1.85;1.30;;;23.40;43.30;;;;;;5045218;28;20045;-61
2021/06/03 10:15:05;;;;;;;1.75;1.30;;;23.50;43.40;;;;;;5045315;28;20025;-61
2021/06/03 10:17:51;;;;;;;2.00;1.40;;;23.50;43.90;;;;;;5044667;28;20033;-61
2021/06/03 10:20:22;;;;;;;2.13;1.40;;;23.40;43.30;;;;;;5054227;28;20025;-61
2021/06/03 10:22:57;;;;;;;2.03;1.55;;;23.50;43.20;;;;;;5055411;28;20289;-61
2021/06/03 10:25:30;;;;;;;2.97;1.40;;;23.50;43.20;;;;;;5049625;28;20491;-63
2021/06/03 10:27:59;;;;;;;2.45;1.20;;;23.40;43.90;;;;;;5051110;28;20504;-61
2021/06/03 10:30:29;;;;;;;1.25;1.10;;;23.40;43.20;;;;;;5049025;28;20149;-61
2021/06/03 10:32:59;;;;;;;1.60;1.30;;;23.50;43.20;;;;;;5051348;28;20033;-61
2021/06/03 10:35:31;;;;;;;1.63;1.30;;;23.50;43.10;;;;;;5055338;28;20456;-61
2021/06/03 10:37:58;;;;;;;2.03;1.30;;;23.50;43.60;;;;;;5057832;28;20047;-62
2021/06/03 10:40:45;;;;;;;1.98;1.50;;;23.50;43.00;;;;;;5048349;28;20599;-62
2021/06/03 10:43:11;;;;;;;2.15;1.20;;;23.50;43.20;;;;;;5052516;28;20087;-61
2021/06/03 10:45:38;;;;;;;1.85;1.30;;;23.50;43.20;;;;;;5056863;28;20434;-61
2021/06/03 10:48:05;;;;;;;1.73;1.30;;;23.50;43.20;;;;;;5056486;28;20029;-61
2021/06/03 10:50:48;;;;;;;2.22;1.40;;;23.60;43.30;;;;;;5062439;28;20048;-61
2021/06/03 10:53:20;;;;;;;2.03;1.33;;;23.60;43.80;;;;;;5056218;28;20043;-61
2021/06/03 10:55:49;;;;;;;1.92;1.38;;;23.60;44.10;;;;;;5060382;28;20032;-61
2021/06/03 10:58:16;;;;;;;2.92;1.60;;;23.60;44.10;;;;;;5056061;28;20021;-62
2021/06/03 11:01:09;;;;;;;4.15;1.65;;;23.60;44.20;;;;;;5052128;28;20033;-61
2021/06/03 11:03:38;;;;;;;3.13;1.58;;;23.60;44.30;;;;;;5057007;28;20364;-62
2021/06/03 11:06:09;;;;;;;2.20;1.58;;;23.60;44.40;;;;;;5047712;28;20155;-62
2021/06/03 11:08:40;;;;;;;1.92;1.50;;;23.60;44.30;;;;;;5051960;28;20501;-63
2021/06/03 11:11:08;;;;;;;2.80;1.63;;;23.60;44.40;;;;;;5064569;28;20090;-62
2021/06/03 11:13:35;;;;;;;2.50;1.50;;;23.60;44.30;;;;;;5054995;28;20028;-63
2021/06/03 11:16:12;;;;;;;2.60;1.60;;;23.60;44.20;;;;;;5051958;28;20399;-62
2021/06/03 11:18:46;;;;;;;2.08;1.40;;;23.60;44.20;;;;;;5056106;28;20082;-62
2021/06/03 11:21:31;;;;;;;2.00;1.40;;;23.60;44.10;;;;;;5052934;28;20024;-62
2021/06/03 11:24:04;;;;;;;1.45;1.23;;;23.60;44.10;;;;;;5063963;28;20051;-62
2021/06/03 11:29:13;;;;;;;2.30;1.50;;;23.60;43.90;;;;;;5057791;28;20052;-62
2021/06/03 11:31:41;;;;;;;2.10;1.40;;;23.60;43.90;;;;;;5052580;28;20036;-63
2021/06/03 11:34:06;;;;;;;1.50;1.30;;;23.60;44.00;;;;;;5062917;28;20359;-63
2021/06/03 11:36:33;;;;;;;2.30;1.40;;;23.60;44.00;;;;;;5054157;28;20028;-63
2021/06/03 11:38:58;;;;;;;2.28;1.48;;;23.70;44.20;;;;;;5055241;28;20074;-62
2021/06/03 11:41:33;;;;;;;1.92;1.40;;;23.70;44.10;;;;;;5067978;28;20601;-62
2021/06/03 11:44:13;;;;;;;1.67;1.20;;;23.60;43.90;;;;;;5071875;28;20051;-62
2021/06/03 11:46:50;;;;;;;2.20;1.27;;;23.70;44.00;;;;;;5065426;28;20099;-62
2021/06/03 11:49:39;;;;;;;1.80;1.40;;;23.70;44.00;;;;;;5058747;28;20033;-62
2021/06/03 11:52:17;;;;;;;3.22;1.30;;;23.70;43.90;;;;;;5061766;28;20024;-63
2021/06/03 11:55:17;;;;;;;1.95;1.20;;;23.70;43.90;;;;;;5056557;28;20690;-61
2021/06/03 11:57:43;;;;;;;1.65;1.30;;;23.70;43.90;;;;;;5051857;28;20536;-62
2021/06/03 12:00:13;;;;;;;2.25;1.30;;;23.70;43.90;;;;;;5060686;28;20036;-61
2021/06/03 12:02:40;;;;;;;1.92;1.30;;;23.70;43.90;;;;;;5051496;28;20040;-60
2021/06/03 12:05:12;;;;;;;2.08;1.40;;;23.70;44.00;;;;;;5054011;28;20517;-62
2021/06/03 12:07:48;;;;;;;1.83;1.20;;;23.70;43.90;;;;;;5048685;28;20483;-62
2021/06/03 12:10:18;;;;;;;1.80;1.20;;;23.70;44.00;;;;;;5062497;28;20024;-61
2021/06/03 12:12:44;;;;;;;2.45;1.40;;;23.70;44.00;;;;;;5064244;28;20028;-61
2021/06/03 12:15:16;;;;;;;1.70;1.20;;;23.70;43.90;;;;;;5062886;28;20035;-61
2021/06/03 12:17:42;;;;;;;1.77;1.10;;;23.70;43.90;;;;;;5066960;28;20036;-62
2021/06/03 12:20:14;;;;;;;1.55;1.08;;;23.70;44.50;;;;;;5065720;28;20163;-62
2021/06/03 12:22:40;;;;;;;2.55;1.33;;;23.70;44.00;;;;;;5061026;28;20032;-64
2021/06/03 12:25:07;;;;;;;1.88;1.30;;;23.70;43.90;;;;;;5054833;28;20089;-63
2021/06/03 12:27:37;;;;;;;1.80;1.30;;;23.70;44.00;;;;;;5054904;28;20067;-62
2021/06/03 12:30:10;;;;;;;1.80;1.30;;;23.70;44.00;;;;;;5058786;28;20040;-62
2021/06/03 12:32:36;;;;;;;1.98;1.40;;;23.80;44.00;;;;;;5051337;28;20166;-62
2021/06/03 12:35:05;;;;;;;2.08;1.30;;;23.80;44.00;;;;;;5054275;28;20100;-62
2021/06/03 12:37:35;;;;;;;1.30;1.17;;;23.80;44.10;;;;;;5058105;28;20032;-62
2021/06/03 12:40:07;;;;;;;1.63;1.10;;;23.80;44.20;;;;;;5051384;28;20136;-62
2021/06/03 12:42:33;;;;;;;1.95;1.30;;;23.80;44.30;;;;;;5054988;28;20041;-63
2021/06/03 12:45:09;;;;;;;1.85;1.25;;;23.80;44.30;;;;;;5064329;28;20036;-63
2021/06/03 12:47:37;;;;;;;1.90;1.10;;;23.80;44.30;;;;;;5053752;28;20443;-63
2021/06/03 12:50:09;;;;;;;2.47;1.20;;;23.80;44.30;;;;;;5057537;28;20063;-62
2021/06/03 12:52:35;;;;;;;2.30;1.40;;;23.80;44.30;;;;;;5061961;28;20466;-62
2021/06/03 12:55:02;;;;;;;2.55;1.27;;;23.80;44.20;;;;;;5055006;28;20021;-63
2021/06/03 12:57:28;;;;;;;2.42;1.20;;;23.80;44.20;;;;;;5046788;28;20025;-62
2021/06/03 12:59:56;;;;;;;1.27;1.10;;;23.90;44.20;;;;;;5059465;28;20032;-63